Time;durP1;ratioP1;P1;durP2;ratioP2;P2;SDS_P1;SDS_P2;PMS_P1;PMS_P2;Temp;Humidity;BMP_temperature;BMP_pressure;BME280_temperature;BME280_humidity;BME280_pressure;Samples;Min_cycle;Max_cycle;Signal;HPM_P1;HPM_P2
2023/04/10 00:02:09;;;;;;;12.47;10.93;;;;;;;5.29;100.00;100183.91;4917297;29;20575;-85
2023/04/10 00:04:36;;;;;;;13.53;11.70;;;;;;;5.24;100.00;100178.28;4916868;29;20210;-86
2023/04/10 00:07:03;;;;;;;11.93;10.70;;;;;;;5.22;100.00;100172.34;4901883;29;20276;-85
2023/04/10 00:09:30;;;;;;;12.67;11.33;;;;;;;5.15;100.00;100168.69;4901542;29;20306;-86
2023/04/10 00:11:57;;;;;;;12.63;10.70;;;;;;;5.21;100.00;100170.69;4899638;29;20712;-86
2023/04/10 00:14:24;;;;;;;12.20;10.90;;;;;;;5.17;100.00;100170.19;4900418;29;20707;-86
2023/04/10 00:16:50;;;;;;;12.00;10.73;;;;;;;5.14;100.00;100170.53;4904388;29;20198;-85
2023/04/10 00:19:17;;;;;;;12.50;11.20;;;;;;;5.07;100.00;100168.72;4901437;29;20785;-86
2023/04/10 00:21:44;;;;;;;12.37;11.07;;;;;;;4.97;100.00;100166.28;4902838;29;20190;-86
2023/04/10 00:24:10;;;;;;;12.27;11.00;;;;;;;4.94;100.00;100169.28;4885363;29;20195;-86
2023/04/10 00:26:40;;;;;;;12.83;11.40;;;;;;;4.86;100.00;100163.97;4901527;29;20206;-85
2023/04/10 00:29:07;;;;;;;13.57;11.60;;;;;;;4.82;100.00;100168.78;4920828;29;20286;-85
2023/04/10 00:31:34;;;;;;;12.80;11.40;;;;;;;4.78;100.00;100166.66;4901409;29;20225;-86
2023/04/10 00:34:00;;;;;;;14.60;12.17;;;;;;;4.74;100.00;100168.81;4917020;29;20195;-87
2023/04/10 00:36:27;;;;;;;14.30;11.80;;;;;;;4.65;100.00;100167.19;4900970;29;20268;-86
2023/04/10 00:38:54;;;;;;;13.53;11.23;;;;;;;4.63;100.00;100165.69;4901075;29;20285;-85
2023/04/10 00:41:22;;;;;;;13.43;12.03;;;;;;;4.68;100.00;100164.19;4901017;29;20202;-87
2023/04/10 00:43:53;;;;;;;13.07;11.50;;;;;;;4.58;100.00;100168.84;4917641;29;20418;-86
2023/04/10 00:46:21;;;;;;;14.20;12.33;;;;;;;4.59;100.00;100167.00;4901235;29;20291;-86
2023/04/10 00:48:49;;;;;;;12.93;11.53;;;;;;;4.53;100.00;100179.13;4888822;29;20220;-85
2023/04/10 00:51:18;;;;;;;13.03;11.63;;;;;;;4.47;100.00;100174.50;4898570;29;20214;-84
2023/04/10 00:53:46;;;;;;;13.70;12.00;;;;;;;4.43;100.00;100171.34;4899318;29;20206;-84
2023/04/10 00:56:13;;;;;;;13.57;12.10;;;;;;;4.34;100.00;100171.50;4900446;29;20206;-85
2023/04/10 00:58:40;;;;;;;13.63;12.23;;;;;;;4.27;100.00;100170.53;4916421;29;20202;-85
2023/04/10 01:01:07;;;;;;;13.93;12.40;;;;;;;4.29;100.00;100171.19;4918282;29;20202;-87
2023/04/10 01:03:34;;;;;;;12.87;11.43;;;;;;;4.24;100.00;100168.22;4899441;29;20747;-84
2023/04/10 01:06:33;;;;;;;14.50;12.37;;;;;;;4.15;100.00;100163.91;4883242;29;20203;-85
2023/04/10 01:09:15;;;;;;;13.27;11.33;;;;;;;4.10;100.00;100158.25;4879849;29;20207;-86
2023/04/10 01:12:08;;;;;;;12.70;11.40;;;;;;;3.94;100.00;100148.47;4901333;29;20214;-85
2023/04/10 01:14:50;;;;;;;14.67;10.80;;;;;;;3.92;100.00;100153.09;4913246;29;20214;-87
2023/04/10 01:17:38;;;;;;;13.07;11.67;;;;;;;3.94;100.00;100154.59;4890283;29;20743;-88
2023/04/10 01:20:10;;;;;;;13.47;10.87;;;;;;;3.71;100.00;100153.56;4915596;29;20214;-87
2023/04/10 01:23:12;;;;;;;14.20;11.83;;;;;;;3.64;100.00;100154.41;4898586;29;20222;-88
2023/04/10 01:25:45;;;;;;;12.70;11.20;;;;;;;3.51;100.00;100155.66;4875322;29;20332;-86
2023/04/10 01:28:22;;;;;;;12.70;11.33;;;;;;;3.48;100.00;100149.88;4899739;29;20208;-86
2023/04/10 01:30:56;;;;;;;13.10;11.33;;;;;;;3.43;100.00;100154.81;4911366;29;20218;-84
2023/04/10 01:33:34;;;;;;;14.37;11.40;;;;;;;3.34;100.00;100148.69;4907520;29;20228;-85
2023/04/10 01:36:04;;;;;;;13.43;11.43;;;;;;;3.27;100.00;100157.41;4901160;29;20229;-85
2023/04/10 01:38:32;;;;;;;13.70;11.57;;;;;;;3.21;100.00;100158.06;4913402;29;20213;-86
2023/04/10 01:40:59;;;;;;;14.97;12.00;;;;;;;3.18;100.00;100151.25;4915707;29;20206;-86
2023/04/10 01:43:28;;;;;;;14.40;11.63;;;;;;;3.13;100.00;100158.03;4900868;29;20190;-84
2023/04/10 01:45:56;;;;;;;13.57;12.03;;;;;;;3.12;100.00;100151.06;4915168;29;20706;-88
2023/04/10 01:48:24;;;;;;;12.80;11.10;;;;;;;3.03;100.00;100158.16;4899628;29;20210;-86
2023/04/10 01:50:51;;;;;;;13.53;11.63;;;;;;;3.00;100.00;100154.00;4893646;29;20242;-86
2023/04/10 01:53:18;;;;;;;12.80;11.33;;;;;;;3.04;100.00;100152.69;4915728;29;20229;-85
2023/04/10 01:55:46;;;;;;;12.13;10.83;;;;;;;2.99;100.00;100149.69;4902190;29;20210;-86
2023/04/10 01:58:14;;;;;;;13.80;11.47;;;;;;;2.93;100.00;100149.50;4899481;29;20202;-86
2023/04/10 02:00:42;;;;;;;12.73;11.10;;;;;;;2.86;100.00;100149.28;4913366;29;20807;-84
2023/04/10 02:03:10;;;;;;;13.30;11.77;;;;;;;2.89;100.00;100148.16;4884270;29;20305;-85
2023/04/10 02:06:05;;;;;;;12.73;11.10;;;;;;;2.90;100.00;100149.78;4915346;29;20210;-86
2023/04/10 02:09:06;;;;;;;14.57;11.50;;;;;;;2.74;100.00;100152.38;4915189;29;20289;-86
2023/04/10 02:11:56;;;;;;;14.13;11.70;;;;;;;2.66;100.00;100153.97;4903009;29;20221;-86
2023/04/10 02:14:27;;;;;;;15.57;11.83;;;;;;;2.58;100.00;100158.38;4901103;29;20864;-87
2023/04/10 02:16:55;;;;;;;13.33;11.20;;;;;;;2.55;100.00;100156.88;4914758;29;20262;-85
2023/04/10 02:19:24;;;;;;;14.47;11.83;;;;;;;2.50;100.00;100156.53;4899408;29;20237;-87
2023/04/10 02:21:50;;;;;;;15.30;12.40;;;;;;;2.49;100.00;100162.78;4909035;29;20202;-85
2023/04/10 02:24:18;;;;;;;13.50;11.30;;;;;;;2.45;100.00;100158.81;4914714;29;20202;-86
2023/04/10 02:26:50;;;;;;;15.07;12.20;;;;;;;2.45;100.00;100157.97;4883884;29;20234;-84
2023/04/10 02:29:17;;;;;;;13.33;11.70;;;;;;;2.45;100.00;100156.16;4918038;29;20230;-84
2023/04/10 02:31:44;;;;;;;13.67;11.33;;;;;;;2.41;100.00;100153.97;4884032;29;20313;-87
2023/04/10 02:34:12;;;;;;;12.93;11.10;;;;;;;2.37;100.00;100153.47;4899314;29;20203;-87
2023/04/10 02:36:42;;;;;;;12.60;10.97;;;;;;;2.37;100.00;100158.75;4883851;29;20218;-83
2023/04/10 02:39:10;;;;;;;13.57;11.67;;;;;;;2.33;100.00;100153.94;4920660;29;20202;-86
2023/04/10 02:41:48;;;;;;;13.87;11.43;;;;;;;2.32;100.00;100145.16;4924614;29;20297;-86
2023/04/10 02:44:16;;;;;;;14.73;11.70;;;;;;;2.30;100.00;100151.56;4903922;29;20211;-85
2023/04/10 02:46:43;;;;;;;14.73;12.03;;;;;;;2.26;100.00;100153.69;4918878;29;20194;-85
2023/04/10 02:49:11;;;;;;;13.53;11.03;;;;;;;2.20;100.00;100149.00;4905986;29;20800;-86
2023/04/10 02:51:37;;;;;;;14.07;11.87;;;;;;;2.17;100.00;100139.59;4926775;29;20292;-86
2023/04/10 02:54:04;;;;;;;13.90;11.73;;;;;;;2.09;100.00;100144.00;4921344;29;20198;-85
2023/04/10 02:56:33;;;;;;;14.73;12.07;;;;;;;2.10;100.00;100150.94;4918083;29;20193;-82
2023/04/10 02:59:01;;;;;;;16.20;11.87;;;;;;;2.11;100.00;100150.75;4919445;29;20294;-86
2023/04/10 03:01:30;;;;;;;14.90;12.30;;;;;;;2.09;100.00;100139.53;4921177;29;20302;-87
2023/04/10 03:03:58;;;;;;;16.23;11.90;;;;;;;2.14;100.00;100147.84;4918655;29;20205;-86
2023/04/10 03:06:29;;;;;;;14.20;12.30;;;;;;;2.08;100.00;100142.31;4913900;29;20730;-84
2023/04/10 03:08:57;;;;;;;15.57;12.17;;;;;;;2.02;100.00;100142.91;4922165;29;20667;-87
2023/04/10 03:11:25;;;;;;;15.30;12.30;;;;;;;2.03;100.00;100139.31;4903752;29;20717;-87
2023/04/10 03:13:52;;;;;;;13.77;11.57;;;;;;;2.02;100.00;100138.47;4909258;29;20185;-86
2023/04/10 03:16:20;;;;;;;15.00;12.63;;;;;;;1.97;100.00;100139.91;4890290;29;20376;-85
2023/04/10 03:18:47;;;;;;;15.17;12.27;;;;;;;1.97;100.00;100142.53;4913531;29;20254;-87
2023/04/10 03:21:13;;;;;;;15.83;11.70;;;;;;;2.02;100.00;100141.13;4922713;29;20205;-85
2023/04/10 03:23:40;;;;;;;15.70;12.40;;;;;;;2.06;100.00;100147.75;4904802;29;20198;-87
2023/04/10 03:26:07;;;;;;;14.50;12.03;;;;;;;2.10;100.00;100140.38;4925647;29;20281;-85
2023/04/10 03:28:38;;;;;;;15.70;12.37;;;;;;;2.19;100.00;100145.53;4925568;29;20214;-87
2023/04/10 03:31:08;;;;;;;15.07;12.57;;;;;;;2.26;100.00;100148.41;4904104;29;20249;-85
2023/04/10 03:33:35;;;;;;;14.87;12.17;;;;;;;2.32;100.00;100145.16;4904871;29;20581;-87
2023/04/10 03:36:03;;;;;;;14.70;12.07;;;;;;;2.35;100.00;100138.72;4919990;29;20218;-86
2023/04/10 03:38:31;;;;;;;15.70;12.73;;;;;;;2.36;100.00;100143.03;4892592;29;20186;-86
2023/04/10 03:40:58;;;;;;;15.43;12.20;;;;;;;2.45;100.00;100150.03;4904532;29;20250;-87
2023/04/10 03:43:29;;;;;;;15.50;13.00;;;;;;;2.48;100.00;100149.72;4902438;29;20204;-87
2023/04/10 03:45:57;;;;;;;17.73;13.97;;;;;;;2.54;100.00;100147.28;4920369;29;20202;-85
2023/04/10 03:48:26;;;;;;;16.63;14.77;;;;;;;2.58;100.00;100147.81;4905058;29;20697;-84
2023/04/10 03:50:54;;;;;;;18.00;15.50;;;;;;;2.62;100.00;100155.25;4908549;29;20290;-86
2023/04/10 03:53:21;;;;;;;20.90;18.53;;;;;;;2.61;100.00;100147.50;4919661;29;20202;-84
2023/04/10 03:55:51;;;;;;;23.17;20.60;;;;;;;2.59;100.00;100152.94;4918802;29;20245;-86
2023/04/10 03:58:19;;;;;;;21.73;18.83;;;;;;;2.57;100.00;100148.78;4921723;29;20202;-84
2023/04/10 04:00:46;;;;;;;21.07;18.20;;;;;;;2.58;100.00;100151.28;4898857;29;20214;-87
2023/04/10 04:03:23;;;;;;;19.10;16.83;;;;;;;2.55;100.00;100148.94;4906750;29;20213;-88
2023/04/10 04:06:01;;;;;;;17.13;14.93;;;;;;;2.51;100.00;100136.19;4915083;29;20201;-86
2023/04/10 04:08:51;;;;;;;17.30;15.50;;;;;;;2.47;100.00;100148.06;4897180;29;20285;-83
2023/04/10 04:11:38;;;;;;;16.23;14.33;;;;;;;2.43;100.00;100152.81;4914550;29;20210;-85
2023/04/10 04:14:44;;;;;;;16.60;13.47;;;;;;;2.42;100.00;100151.19;4909364;29;20211;-87
2023/04/10 04:17:36;;;;;;;15.10;13.50;;;;;;;2.31;100.00;100147.94;4904548;29;20329;-86
2023/04/10 04:20:04;;;;;;;15.70;14.03;;;;;;;2.38;100.00;100151.66;4917891;29;20210;-87
2023/04/10 04:23:01;;;;;;;14.87;13.23;;;;;;;2.35;100.00;100158.06;4903114;29;20271;-86
2023/04/10 04:25:46;;;;;;;15.77;13.10;;;;;;;2.37;100.00;100153.47;4905025;29;20213;-83
2023/04/10 04:28:38;;;;;;;14.23;11.90;;;;;;;2.42;100.00;100161.75;4889787;29;20277;-86
2023/04/10 04:31:20;;;;;;;15.27;12.63;;;;;;;2.52;100.00;100161.66;4900932;29;20281;-83
2023/04/10 04:34:05;;;;;;;15.77;12.80;;;;;;;2.54;100.00;100160.50;4898607;29;20277;-86
2023/04/10 04:36:46;;;;;;;15.37;12.70;;;;;;;2.56;100.00;100158.56;4900828;29;20257;-87
2023/04/10 04:39:34;;;;;;;14.07;12.47;;;;;;;2.62;100.00;100160.56;4916287;29;20589;-85
2023/04/10 04:42:16;;;;;;;13.67;12.27;;;;;;;2.63;100.00;100158.75;4900680;29;20237;-86
2023/04/10 04:45:01;;;;;;;15.13;12.93;;;;;;;2.72;100.00;100165.75;4900768;29;20228;-87
2023/04/10 04:47:43;;;;;;;14.70;12.10;;;;;;;2.78;100.00;100167.78;4915466;29;20201;-87
2023/04/10 04:50:33;;;;;;;13.93;12.40;;;;;;;2.92;100.00;100171.66;4877782;29;20210;-84
2023/04/10 04:53:12;;;;;;;15.37;13.10;;;;;;;3.01;100.00;100170.72;4901315;29;20823;-86
2023/04/10 04:55:59;;;;;;;14.33;12.83;;;;;;;3.22;100.00;100172.97;4901875;29;20273;-85
2023/04/10 04:58:45;;;;;;;14.30;11.83;;;;;;;3.35;100.00;100174.19;4902070;29;20679;-86
2023/04/10 05:01:34;;;;;;;14.77;12.27;;;;;;;3.50;100.00;100175.19;4917720;29;20702;-85
2023/04/10 05:04:23;;;;;;;13.70;12.07;;;;;;;3.67;100.00;100175.25;4899467;29;20225;-86
2023/04/10 05:07:22;;;;;;;13.33;11.63;;;;;;;3.82;100.00;100174.47;4916171;29;20245;-85
2023/04/10 05:10:07;;;;;;;15.20;12.67;;;;;;;3.99;100.00;100178.78;4896887;29;20214;-87
2023/04/10 05:12:57;;;;;;;13.77;12.00;;;;;;;4.23;100.00;100190.41;4870205;29;20249;-87
2023/04/10 05:15:31;;;;;;;12.43;11.13;;;;;;;4.37;100.00;100182.63;4887275;29;20277;-84
2023/04/10 05:18:07;;;;;;;12.87;11.57;;;;;;;4.52;100.00;100188.09;4900538;29;20309;-86
2023/04/10 05:20:53;;;;;;;12.90;11.40;;;;;;;4.70;100.00;100185.25;4898690;29;20253;-86
2023/04/10 05:23:40;;;;;;;12.73;11.23;;;;;;;4.89;100.00;100195.50;4889556;29;20260;-86
2023/04/10 05:26:26;;;;;;;12.10;10.80;;;;;;;5.10;100.00;100194.94;4916148;29;20233;-84
2023/04/10 05:29:13;;;;;;;13.23;11.53;;;;;;;5.28;100.00;100196.38;4886077;29;20226;-85
2023/04/10 05:32:06;;;;;;;12.73;11.40;;;;;;;5.49;100.00;100197.63;4900502;29;20806;-86
2023/04/10 05:34:57;;;;;;;13.20;11.67;;;;;;;5.70;100.00;100201.34;4895696;29;20691;-86
2023/04/10 05:37:32;;;;;;;13.10;11.23;;;;;;;5.90;100.00;100198.25;4915530;29;20250;-85
2023/04/10 05:40:08;;;;;;;11.60;10.40;;;;;;;6.16;100.00;100209.38;4916169;29;20210;-85
2023/04/10 05:42:58;;;;;;;12.73;11.30;;;;;;;5.97;100.00;100202.69;4890083;29;20218;-85
2023/04/10 05:45:49;;;;;;;13.13;11.07;;;;;;;6.15;100.00;100205.09;4915349;29;20743;-85
2023/04/10 05:48:29;;;;;;;12.13;10.83;;;;;;;6.27;100.00;100203.66;4915442;29;20206;-86
2023/04/10 05:51:15;;;;;;;12.60;11.00;;;;;;;6.45;100.00;100208.69;4912366;29;20234;-84
2023/04/10 05:54:13;;;;;;;12.00;10.70;;;;;;;6.75;100.00;100213.09;4900543;29;20210;-86
2023/04/10 05:57:06;;;;;;;12.73;11.40;;;;;;;6.99;100.00;100217.34;4900962;29;20234;-87
2023/04/10 05:59:59;;;;;;;11.70;10.50;;;;;;;7.12;100.00;100214.88;4912629;29;20214;-85
2023/04/10 06:02:48;;;;;;;13.13;11.57;;;;;;;7.33;100.00;100222.94;4915318;29;20641;-84
2023/04/10 06:05:22;;;;;;;13.53;11.63;;;;;;;7.45;100.00;100218.81;4914213;29;20216;-85
2023/04/10 06:07:55;;;;;;;13.60;11.60;;;;;;;7.65;100.00;100221.72;4913907;29;20214;-85
2023/04/10 06:10:24;;;;;;;12.60;11.30;;;;;;;7.73;100.00;100224.31;4884093;29;20262;-84
2023/04/10 06:12:52;;;;;;;13.27;11.53;;;;;;;7.93;100.00;100212.00;4899042;29;20242;-84
2023/04/10 06:15:21;;;;;;;12.60;11.27;;;;;;;7.74;100.00;100211.81;4899436;29;20337;-85
2023/04/10 06:17:48;;;;;;;12.20;11.00;;;;;;;7.93;100.00;100212.00;4899029;29;20237;-86
2023/04/10 06:20:15;;;;;;;11.97;10.77;;;;;;;8.23;100.00;100215.41;4900061;29;20705;-86
2023/04/10 06:22:41;;;;;;;11.90;10.70;;;;;;;8.26;100.00;100215.03;4894410;29;20202;-85
2023/04/10 06:25:08;;;;;;;11.90;10.70;;;;;;;8.42;100.00;100219.31;4914553;29;20277;-85
2023/04/10 06:27:36;;;;;;;12.23;11.03;;;;;;;8.69;100.00;100221.19;4914930;29;20201;-85
2023/04/10 06:30:07;;;;;;;12.10;10.90;;;;;;;8.63;100.00;100213.16;4898724;29;20212;-85
2023/04/10 06:32:34;;;;;;;12.17;10.93;;;;;;;8.92;100.00;100223.63;4910885;29;20220;-83
2023/04/10 06:35:01;;;;;;;11.90;10.70;;;;;;;9.09;100.00;100225.00;4895793;29;20202;-84
2023/04/10 06:37:31;;;;;;;12.83;11.57;;;;;;;9.18;100.00;100231.88;4914838;29;20277;-84
2023/04/10 06:40:06;;;;;;;12.23;11.03;;;;;;;9.38;100.00;100234.63;4915284;29;20219;-85
2023/04/10 06:42:33;;;;;;;11.57;10.37;;;;;;;9.57;100.00;100233.09;4913110;29;20198;-85
2023/04/10 06:45:08;;;;;;;11.40;10.30;;;;;;;9.68;100.00;100235.22;4898487;29;20213;-85
2023/04/10 06:47:35;;;;;;;12.47;11.17;;;;;;;9.73;100.00;100230.09;4882255;29;20254;-85
2023/04/10 06:50:05;;;;;;;11.67;10.47;;;;;;;9.99;100.00;100234.69;4898680;29;20671;-84
2023/04/10 06:52:31;;;;;;;11.33;10.13;;;;;;;9.99;100.00;100232.03;4914190;29;20309;-84
2023/04/10 06:54:58;;;;;;;12.10;11.00;;;;;;;10.28;100.00;100229.06;4911370;29;20353;-84
2023/04/10 06:57:25;;;;;;;11.50;10.40;;;;;;;10.17;100.00;100231.50;4897338;29;20227;-85
2023/04/10 06:59:52;;;;;;;11.53;10.43;;;;;;;10.47;100.00;100232.78;4883612;29;20202;-85
2023/04/10 07:02:18;;;;;;;11.67;10.57;;;;;;;10.70;100.00;100229.72;4899450;29;20257;-83
2023/04/10 07:04:48;;;;;;;12.17;10.97;;;;;;;10.61;100.00;100229.09;4910241;29;20298;-82
2023/04/10 07:07:18;;;;;;;11.07;9.97;;;;;;;10.77;100.00;100241.28;4896398;29;20659;-84
2023/04/10 07:09:44;;;;;;;11.13;10.07;;;;;;;10.05;100.00;100231.22;4895413;29;20665;-85
2023/04/10 07:12:11;;;;;;;11.00;9.90;;;;;;;10.20;100.00;100234.59;4914541;29;20214;-85
2023/04/10 07:14:38;;;;;;;11.30;10.20;;;;;;;10.06;100.00;100235.56;4915712;29;20273;-84
2023/04/10 07:17:05;;;;;;;10.77;9.67;;;;;;;10.30;100.00;100232.38;4897117;29;20226;-85
2023/04/10 07:19:31;;;;;;;11.33;10.17;;;;;;;10.33;100.00;100234.63;4891592;29;20226;-84
2023/04/10 07:21:59;;;;;;;10.87;9.87;;;;;;;9.95;100.00;100241.47;4899955;29;20248;-84
2023/04/10 07:24:26;;;;;;;12.50;11.17;;;;;;;10.19;100.00;100238.31;4906823;29;20258;-86
2023/04/10 07:26:53;;;;;;;10.57;9.57;;;;;;;9.97;100.00;100231.41;4914471;29;20208;-87
2023/04/10 07:29:20;;;;;;;11.97;10.77;;;;;;;9.93;100.00;100236.34;4917595;29;20269;-83
2023/04/10 07:31:46;;;;;;;11.57;10.47;;;;;;;10.09;100.00;100243.19;4901950;29;20214;-85
2023/04/10 07:34:13;;;;;;;11.80;10.70;;;;;;;10.19;100.00;100240.16;4901732;29;20226;-86
2023/04/10 07:36:40;;;;;;;11.20;10.10;;;;;;;10.32;100.00;100245.53;4890507;29;20777;-86
2023/04/10 07:39:09;;;;;;;11.20;10.10;;;;;;;10.15;100.00;100234.34;4914270;29;20195;-85
2023/04/10 07:41:36;;;;;;;11.90;10.70;;;;;;;10.37;100.00;100233.19;4917922;29;20222;-84
2023/04/10 07:44:03;;;;;;;12.03;10.83;;;;;;;10.23;100.00;100231.50;4919540;29;20558;-85
2023/04/10 07:46:30;;;;;;;12.73;11.43;;;;;;;10.45;100.00;100232.19;4902349;29;20225;-84
2023/04/10 07:48:56;;;;;;;11.87;10.27;;;;;;;10.54;100.00;100229.06;4899713;29;20206;-85
2023/04/10 07:51:23;;;;;;;12.00;10.80;;;;;;;10.53;100.00;100232.81;4917650;29;20206;-84
2023/04/10 07:53:50;;;;;;;11.90;10.70;;;;;;;10.56;100.00;100232.38;4919927;29;20297;-84
2023/04/10 07:56:18;;;;;;;10.80;9.80;;;;;;;10.71;100.00;100239.41;4918417;29;20210;-84
2023/04/10 07:58:45;;;;;;;11.37;10.27;;;;;;;10.83;100.00;100233.22;4922481;29;20194;-85
2023/04/10 08:01:12;;;;;;;11.93;10.63;;;;;;;10.84;100.00;100245.59;4916725;29;20218;-85
2023/04/10 08:03:44;;;;;;;11.73;10.53;;;;;;;10.72;100.00;100235.72;4886211;29;20252;-84
2023/04/10 08:06:11;;;;;;;11.73;10.63;;;;;;;11.34;100.00;100238.72;4886329;29;20202;-84
2023/04/10 08:08:39;;;;;;;11.83;10.67;;;;;;;11.35;100.00;100231.50;4917618;29;20203;-84
2023/04/10 08:11:24;;;;;;;11.33;10.13;;;;;;;11.47;100.00;100225.31;4882538;29;20232;-85
2023/04/10 08:13:52;;;;;;;12.63;11.33;;;;;;;11.34;100.00;100227.16;4886494;29;20197;-85
2023/04/10 08:16:26;;;;;;;12.40;11.20;;;;;;;11.37;100.00;100221.41;4902522;29;20201;-85
2023/04/10 08:18:54;;;;;;;12.80;11.57;;;;;;;11.40;100.00;100229.03;4901159;29;20274;-84
2023/04/10 08:21:21;;;;;;;11.33;10.23;;;;;;;11.54;100.00;100230.63;4886490;29;20203;-83
2023/04/10 08:23:56;;;;;;;12.63;11.43;;;;;;;11.45;100.00;100231.91;4900141;29;20294;-86
2023/04/10 08:26:24;;;;;;;12.70;11.40;;;;;;;11.46;100.00;100214.78;4890621;29;20233;-83
2023/04/10 08:28:52;;;;;;;13.30;12.00;;;;;;;11.45;100.00;100224.69;4920185;29;20667;-85
2023/04/10 08:31:21;;;;;;;13.30;11.97;;;;;;;11.46;100.00;100218.28;4901545;29;20269;-83
2023/04/10 08:33:48;;;;;;;13.50;12.30;;;;;;;11.36;100.00;100227.78;4900906;29;20240;-85
2023/04/10 08:36:15;;;;;;;13.47;12.07;;;;;;;11.30;100.00;100232.13;4916688;29;20214;-84
2023/04/10 08:38:47;;;;;;;13.57;12.23;;;;;;;11.44;100.00;100231.06;4902006;29;20210;-87
2023/04/10 08:41:15;;;;;;;14.47;12.97;;;;;;;11.62;100.00;100219.66;4887554;29;20655;-86
2023/04/10 08:43:44;;;;;;;13.87;12.47;;;;;;;11.55;100.00;100215.34;4886074;29;20648;-84
2023/04/10 08:46:14;;;;;;;15.20;13.60;;;;;;;11.45;100.00;100224.69;4917401;29;20194;-85
2023/04/10 08:48:46;;;;;;;15.10;13.60;;;;;;;11.58;100.00;100218.44;4919969;29;20198;-85
2023/04/10 08:51:17;;;;;;;15.53;14.03;;;;;;;11.88;100.00;100222.28;4905335;29;20557;-83
2023/04/10 08:53:50;;;;;;;15.57;13.20;;;;;;;12.22;100.00;100221.09;4903531;29;20218;-83
2023/04/10 08:56:17;;;;;;;16.03;14.43;;;;;;;12.24;100.00;100213.59;4901564;29;20224;-83
2023/04/10 08:58:44;;;;;;;16.30;14.60;;;;;;;12.41;100.00;100221.16;4915670;29;20273;-84
2023/04/10 09:01:11;;;;;;;16.77;15.13;;;;;;;12.38;100.00;100214.34;4882653;29;20194;-85
2023/04/10 09:03:38;;;;;;;16.53;14.93;;;;;;;12.71;100.00;100214.09;4902028;29;20226;-83
2023/04/10 09:06:05;;;;;;;16.47;14.77;;;;;;;12.90;100.00;100217.66;4912187;29;20217;-83
2023/04/10 09:08:32;;;;;;;15.93;14.43;;;;;;;13.02;100.00;100219.41;4912995;29;20214;-85
2023/04/10 09:10:59;;;;;;;15.67;14.13;;;;;;;13.14;100.00;100211.47;4914018;29;20204;-83
2023/04/10 09:13:38;;;;;;;18.53;16.63;;;;;;;12.46;100.00;100208.69;4896219;29;20348;-83
2023/04/10 09:16:05;;;;;;;20.10;18.10;;;;;;;12.44;100.00;100207.28;4902385;29;20198;-85
2023/04/10 09:19:01;;;;;;;19.03;17.13;;;;;;;12.51;100.00;100199.97;4901468;29;20234;-82
2023/04/10 09:21:31;;;;;;;18.50;16.70;;;;;;;12.77;100.00;100200.63;4904109;29;20207;-84
2023/04/10 09:24:01;;;;;;;20.03;17.97;;;;;;;12.78;100.00;100196.88;4890552;29;20230;-83
2023/04/10 09:26:32;;;;;;;19.90;17.90;;;;;;;12.34;100.00;100187.09;4903222;29;20229;-84
2023/04/10 09:29:03;;;;;;;19.67;17.57;;;;;;;12.94;100.00;100197.34;4911153;29;20554;-84
2023/04/10 09:31:39;;;;;;;19.50;17.50;;;;;;;12.82;98.36;100193.75;4915953;29;20406;-83
2023/04/10 09:34:09;;;;;;;18.90;17.00;;;;;;;13.21;98.70;100191.53;4913243;29;20214;-84
2023/04/10 09:36:36;;;;;;;19.17;17.30;;;;;;;13.13;98.13;100188.31;4906316;29;20240;-86
2023/04/10 09:39:04;;;;;;;19.10;17.10;;;;;;;13.14;95.94;100180.03;4883813;29;20199;-84
2023/04/10 09:41:30;;;;;;;19.60;17.60;;;;;;;13.12;97.45;100183.97;4896520;29;20306;-84
2023/04/10 09:44:09;;;;;;;20.03;18.03;;;;;;;12.63;97.10;100172.19;4883252;29;20203;-84
2023/04/10 09:46:36;;;;;;;19.80;17.80;;;;;;;12.84;98.44;100167.44;4916447;29;20290;-83
2023/04/10 09:49:04;;;;;;;19.77;17.77;;;;;;;12.89;97.91;100163.06;4898621;29;20187;-82
2023/04/10 09:51:33;;;;;;;20.47;18.47;;;;;;;13.09;99.13;100163.69;4897567;29;20205;-82
2023/04/10 09:54:01;;;;;;;19.50;17.60;;;;;;;12.89;95.30;100159.53;4896906;29;20305;-82
2023/04/10 09:56:35;;;;;;;21.10;18.93;;;;;;;13.00;95.38;100156.13;4914451;29;20198;-83
2023/04/10 09:59:03;;;;;;;20.27;18.10;;;;;;;12.93;95.31;100158.03;4917333;29;20205;-83
2023/04/10 10:01:33;;;;;;;20.07;18.07;;;;;;;12.72;94.97;100164.69;4915004;29;20202;-83
2023/04/10 10:04:02;;;;;;;20.30;18.30;;;;;;;13.20;94.29;100170.25;4914116;29;20221;-83
2023/04/10 10:06:32;;;;;;;19.90;18.00;;;;;;;13.63;92.53;100153.97;4898240;29;20197;-83
2023/04/10 10:09:02;;;;;;;19.60;17.70;;;;;;;13.68;93.60;100154.13;4913562;29;20659;-81
2023/04/10 10:11:31;;;;;;;19.70;17.70;;;;;;;13.88;92.70;100152.00;4899555;29;20191;-84
2023/04/10 10:13:59;;;;;;;19.97;17.97;;;;;;;13.75;91.57;100140.56;4914316;29;20220;-85
2023/04/10 10:16:25;;;;;;;18.60;16.70;;;;;;;13.73;87.79;100135.41;4886371;29;20218;-83
2023/04/10 10:19:33;;;;;;;19.07;17.27;;;;;;;13.64;86.67;100136.78;4891240;29;20231;-82
2023/04/10 10:22:00;;;;;;;19.03;17.17;;;;;;;13.73;87.05;100129.19;4895269;29;20225;-84
2023/04/10 10:24:28;;;;;;;18.77;16.87;;;;;;;13.81;86.19;100131.59;4925903;29;20204;-84
2023/04/10 10:26:56;;;;;;;18.40;16.50;;;;;;;13.85;85.73;100113.94;4920237;29;20229;-83
2023/04/10 10:29:23;;;;;;;19.03;17.23;;;;;;;13.93;87.16;100108.22;4921919;29;20201;-84
2023/04/10 10:31:51;;;;;;;20.67;18.67;;;;;;;13.41;88.70;100102.50;4923143;29;20190;-84
2023/04/10 10:34:21;;;;;;;19.97;17.97;;;;;;;13.62;88.33;100107.38;4906762;29;20226;-83
2023/04/10 10:36:49;;;;;;;18.80;17.00;;;;;;;13.34;86.13;100109.03;4929254;29;20321;-84
2023/04/10 10:39:16;;;;;;;19.90;17.90;;;;;;;13.25;86.89;100105.78;4923505;29;20663;-84
2023/04/10 10:41:53;;;;;;;19.33;17.43;;;;;;;13.87;86.68;100103.72;4899588;29;20296;-84
2023/04/10 10:44:29;;;;;;;18.63;16.83;;;;;;;13.68;85.31;100084.94;4914102;29;20258;-84
2023/04/10 10:47:16;;;;;;;19.57;17.67;;;;;;;14.00;87.83;100098.97;4913708;29;20201;-84
2023/04/10 10:49:54;;;;;;;20.00;18.10;;;;;;;13.93;83.31;100092.03;4913689;29;20198;-84
2023/04/10 10:52:51;;;;;;;19.00;17.10;;;;;;;13.83;83.67;100094.47;4911088;29;20250;-84
2023/04/10 10:55:21;;;;;;;20.07;18.07;;;;;;;13.75;83.35;100087.53;4913948;29;20207;-84
2023/04/10 10:57:59;;;;;;;21.07;18.97;;;;;;;13.79;84.84;100079.81;4901983;29;20226;-85
2023/04/10 11:00:51;;;;;;;21.23;19.23;;;;;;;13.51;85.70;100075.88;4896388;29;20711;-83
2023/04/10 11:03:18;;;;;;;19.93;18.03;;;;;;;13.99;83.30;100072.28;4917074;29;20263;-83
2023/04/10 11:06:02;;;;;;;20.27;18.27;;;;;;;14.43;82.90;100077.16;4901677;29;20263;-83
2023/04/10 11:08:32;;;;;;;20.57;18.47;;;;;;;13.81;81.18;100067.75;4918277;29;20257;-84
2023/04/10 11:11:06;;;;;;;19.40;17.57;;;;;;;14.09;81.59;100062.56;4919562;29;20196;-84
2023/04/10 11:13:33;;;;;;;20.23;18.23;;;;;;;14.53;82.25;100063.91;4917144;29;20204;-83
2023/04/10 11:16:01;;;;;;;20.30;18.30;;;;;;;14.75;81.44;100057.91;4901195;29;20198;-83
2023/04/10 11:18:43;;;;;;;19.47;17.47;;;;;;;14.32;80.77;100064.47;4916564;29;20242;-83
2023/04/10 11:21:17;;;;;;;19.43;17.53;;;;;;;14.55;81.35;100058.31;4912734;29;20190;-83
2023/04/10 11:24:04;;;;;;;20.20;18.23;;;;;;;14.81;77.19;100047.00;4889608;29;20204;-83
2023/04/10 11:26:38;;;;;;;19.17;17.37;;;;;;;15.11;75.57;100054.94;4917663;29;21393;-82
2023/04/10 11:29:05;;;;;;;19.87;17.87;;;;;;;14.59;77.67;100029.00;4917826;29;20196;-83
2023/04/10 11:31:33;;;;;;;20.47;18.47;;;;;;;14.78;78.86;100035.88;4917842;29;20669;-83
2023/04/10 11:34:02;;;;;;;20.83;18.73;;;;;;;15.04;79.37;100042.63;4917139;29;20302;-83